createdAt,value
2024-04-23T00:00:03.355Z,94526.00
2024-04-23T00:01:03.391Z,94522.00
2024-04-23T00:02:03.386Z,94516.00
2024-04-23T00:03:03.358Z,94516.00
2024-04-23T00:04:03.421Z,94515.00
2024-04-23T00:05:03.439Z,94514.00
2024-04-23T00:06:03.347Z,94512.00
2024-04-23T00:07:03.388Z,94514.00
2024-04-23T00:08:03.509Z,94511.00
2024-04-23T00:09:03.479Z,94511.00
2024-04-23T00:10:03.544Z,94509.00
2024-04-23T00:11:03.948Z,94508.00
2024-04-23T00:12:03.669Z,94506.00
2024-04-23T00:13:03.728Z,94504.00
2024-04-23T00:14:03.773Z,94500.00
2024-04-23T00:15:03.862Z,94499.00
2024-04-23T00:16:03.877Z,94496.00
2024-04-23T00:17:03.987Z,94495.00
2024-04-23T00:18:04.079Z,94495.00
2024-04-23T00:19:04.035Z,94493.00
2024-04-23T00:20:04.283Z,94490.00
2024-04-23T00:21:04.144Z,94487.00
2024-04-23T00:22:04.224Z,94483.00
2024-04-23T00:23:04.314Z,94478.00
2024-04-23T00:24:04.346Z,94476.00
2024-04-23T00:25:04.440Z,94475.00
2024-04-23T00:26:04.535Z,94476.00
2024-04-23T00:27:04.542Z,94475.00
2024-04-23T00:28:04.596Z,94473.00
2024-04-23T00:29:04.671Z,94476.00
2024-04-23T00:30:04.728Z,94474.00
2024-04-23T00:31:04.748Z,94472.00
2024-04-23T00:32:05.007Z,94470.00
2024-04-23T00:33:04.983Z,94469.00
2024-04-23T00:34:04.943Z,94467.00
2024-04-23T00:35:05.034Z,94468.00
2024-04-23T00:36:05.076Z,94468.00
2024-04-23T00:37:05.137Z,94470.00
2024-04-23T00:38:05.199Z,94471.00
2024-04-23T00:39:05.259Z,94472.00
2024-04-23T00:40:05.340Z,94473.00
2024-04-23T00:41:05.397Z,94471.00
2024-04-23T00:42:05.676Z,94471.00
2024-04-23T00:43:05.528Z,94472.00
2024-04-23T00:44:05.602Z,94468.00
2024-04-23T00:45:05.633Z,94469.00
2024-04-23T00:46:05.743Z,94467.00
2024-04-23T00:47:05.783Z,94468.00
2024-04-23T00:48:05.863Z,94466.00
2024-04-23T00:49:05.864Z,94464.00
2024-04-23T00:50:05.981Z,94463.00
2024-04-23T00:51:06.003Z,94464.00
2024-04-23T00:52:06.084Z,94465.00
2024-04-23T00:53:06.164Z,94463.00
2024-04-23T00:54:06.203Z,94465.00
2024-04-23T00:55:06.280Z,94464.00
2024-04-23T00:56:06.346Z,94462.00
2024-04-23T00:57:06.400Z,94463.00
2024-04-23T00:58:06.446Z,94461.00
2024-04-23T00:59:06.623Z,94461.00
2024-04-23T01:00:06.621Z,94459.00
2024-04-23T01:01:06.697Z,94457.00
2024-04-23T01:02:06.807Z,94454.00
2024-04-23T01:03:06.928Z,94453.00
2024-04-23T01:04:06.932Z,94453.00
2024-04-23T01:05:07.024Z,94451.00
2024-04-23T01:06:06.975Z,94453.00
2024-04-23T01:07:07.094Z,94452.00
2024-04-23T01:08:07.205Z,94454.00
2024-04-23T01:09:07.206Z,94450.00
2024-04-23T01:10:07.246Z,94450.00
2024-04-23T01:11:07.398Z,94450.00
2024-04-23T01:12:07.376Z,94446.00
2024-04-23T01:13:07.426Z,94445.00
2024-04-23T01:14:07.506Z,94446.00
2024-04-23T01:15:07.699Z,94446.00
2024-04-23T01:16:07.658Z,94446.00
2024-04-23T01:17:07.863Z,94445.00
2024-04-23T01:18:07.867Z,94444.00
2024-04-23T01:19:07.814Z,94444.00
2024-04-23T01:20:07.934Z,94441.00
2024-04-23T01:21:07.938Z,94441.00
2024-04-23T01:22:08.074Z,94440.00
2024-04-23T01:23:08.052Z,94440.00
2024-04-23T01:24:08.262Z,94440.00
2024-04-23T01:25:08.154Z,94442.00
2024-04-23T01:26:08.267Z,94442.00
2024-04-23T01:27:08.438Z,94442.00
2024-04-23T01:28:08.456Z,94443.00
2024-04-23T01:29:08.575Z,94438.00
2024-04-23T01:30:08.640Z,94438.00
2024-04-23T01:31:08.801Z,94433.00
2024-04-23T01:32:08.891Z,94432.00
2024-04-23T01:33:09.073Z,94435.00
2024-04-23T01:34:09.043Z,94431.00
2024-04-23T01:35:09.116Z,94431.00
2024-04-23T01:36:09.153Z,94434.00
2024-04-23T01:37:09.232Z,94433.00
2024-04-23T01:38:09.346Z,94433.00
2024-04-23T01:39:09.372Z,94434.00
2024-04-23T01:40:09.560Z,94433.00
2024-04-23T01:41:09.529Z,94432.00
2024-04-23T01:42:09.573Z,94433.00
2024-04-23T01:43:09.616Z,94431.00
2024-04-23T01:44:09.686Z,94432.00
2024-04-23T01:45:09.808Z,94429.00
2024-04-23T01:46:09.844Z,94430.00
2024-04-23T01:47:10.380Z,94430.00
2024-04-23T01:48:10.078Z,94430.00
2024-04-23T01:49:10.028Z,94428.00
2024-04-23T01:50:10.126Z,94426.00
2024-04-23T01:51:10.179Z,94427.00
2024-04-23T01:52:10.252Z,94426.00
2024-04-23T01:53:10.306Z,94426.00
2024-04-23T01:54:10.480Z,94428.00
2024-04-23T01:55:10.488Z,94427.00
2024-04-23T01:56:10.514Z,94427.00
2024-04-23T01:57:10.592Z,94427.00
2024-04-23T01:58:10.639Z,94426.00
2024-04-23T01:59:10.733Z,94425.00
2024-04-23T02:00:10.815Z,94422.00
2024-04-23T02:01:10.893Z,94418.00
2024-04-23T02:02:10.996Z,94418.00
2024-04-23T02:03:11.063Z,94415.00
2024-04-23T02:04:11.088Z,94414.00
2024-04-23T02:05:11.159Z,94411.00
2024-04-23T02:06:11.211Z,94415.00
2024-04-23T02:07:11.295Z,94414.00
2024-04-23T02:08:11.407Z,94413.00
2024-04-23T02:09:11.455Z,94415.00
2024-04-23T02:10:11.498Z,94415.00
2024-04-23T02:11:11.675Z,94413.00
2024-04-23T02:12:11.662Z,94414.00
2024-04-23T02:13:11.713Z,94418.00
2024-04-23T02:14:11.837Z,94414.00
2024-04-23T02:15:11.900Z,94418.00
2024-04-23T02:16:11.948Z,94416.00
2024-04-23T02:17:12.120Z,94415.00
2024-04-23T02:18:12.199Z,94417.00
2024-04-23T02:19:12.130Z,94415.00
2024-04-23T02:20:12.204Z,94414.00
2024-04-23T02:21:12.256Z,94414.00
2024-04-23T02:22:12.334Z,94417.00
2024-04-23T02:23:12.409Z,94416.00
2024-04-23T02:24:12.457Z,94415.00
2024-04-23T02:25:12.560Z,94411.00
2024-04-23T02:26:12.630Z,94411.00
2024-04-23T02:27:12.684Z,94411.00
2024-04-23T02:28:12.748Z,94407.00
2024-04-23T02:29:12.833Z,94408.00
2024-04-23T02:30:12.929Z,94407.00
2024-04-23T02:31:12.991Z,94407.00
2024-04-23T02:32:13.089Z,94406.00
2024-04-23T02:33:13.193Z,94403.00
2024-04-23T02:34:13.212Z,94400.00
2024-04-23T02:35:13.270Z,94401.00
2024-04-23T02:36:13.324Z,94402.00
2024-04-23T02:37:13.423Z,94400.00
2024-04-23T02:38:13.481Z,94399.00
2024-04-23T02:39:13.560Z,94399.00
2024-04-23T02:40:13.593Z,94399.00
2024-04-23T02:41:13.656Z,94398.00
2024-04-23T02:42:13.727Z,94401.00
2024-04-23T02:43:13.764Z,94400.00
2024-04-23T02:44:13.922Z,94397.00
2024-04-23T02:45:14.094Z,94397.00
2024-04-23T02:46:14.203Z,94396.00
2024-04-23T02:47:14.376Z,94397.00
2024-04-23T02:48:14.536Z,94397.00
2024-04-23T02:49:14.622Z,94395.00
2024-04-23T02:50:14.778Z,94394.00
2024-04-23T02:51:14.854Z,94393.00
2024-04-23T02:52:15.012Z,94392.00
2024-04-23T02:53:15.096Z,94393.00
2024-04-23T02:54:15.223Z,94392.00
2024-04-23T02:55:15.411Z,94391.00
2024-04-23T02:56:15.462Z,94389.00
2024-04-23T02:57:15.650Z,94388.00
2024-04-23T02:58:15.780Z,94383.00
2024-04-23T02:59:15.932Z,94387.00
2024-04-23T03:00:16.045Z,94386.00
2024-04-23T03:01:16.172Z,94385.00
2024-04-23T03:02:16.646Z,94383.00
2024-04-23T03:03:16.364Z,94383.00
2024-04-23T03:04:16.422Z,94385.00
2024-04-23T03:05:16.495Z,94385.00
2024-04-23T03:06:16.574Z,94385.00
2024-04-23T03:07:16.648Z,94384.00
2024-04-23T03:08:16.722Z,94382.00
2024-04-23T03:09:16.766Z,94382.00
2024-04-23T03:10:16.858Z,94379.00
2024-04-23T03:11:17.033Z,94380.00
2024-04-23T03:12:17.059Z,94380.00
2024-04-23T03:13:17.062Z,94380.00
2024-04-23T03:14:17.099Z,94377.00
2024-04-23T03:15:17.191Z,94376.00
2024-04-23T03:16:17.251Z,94378.00
2024-04-23T03:17:17.342Z,94376.00
2024-04-23T03:18:17.475Z,94377.00
2024-04-23T03:19:17.445Z,94375.00
2024-04-23T03:20:17.513Z,94377.00
2024-04-23T03:21:17.632Z,94376.00
2024-04-23T03:22:17.646Z,94376.00
2024-04-23T03:23:17.725Z,94375.00
2024-04-23T03:24:17.735Z,94375.00
2024-04-23T03:25:17.911Z,94373.00
2024-04-23T03:26:17.996Z,94371.00
2024-04-23T03:27:18.109Z,94371.00
2024-04-23T03:28:18.219Z,94373.00
2024-04-23T03:29:18.394Z,94372.00
2024-04-23T03:30:18.456Z,94369.00
2024-04-23T03:31:18.571Z,94368.00
2024-04-23T03:32:18.843Z,94367.00
2024-04-23T03:33:18.865Z,94369.00
2024-04-23T03:34:18.948Z,94368.00
2024-04-23T03:35:19.095Z,94368.00
2024-04-23T03:36:19.194Z,94370.00
2024-04-23T03:37:19.365Z,94369.00
2024-04-23T03:38:19.511Z,94371.00
2024-04-23T03:39:19.631Z,94372.00
2024-04-23T03:40:19.778Z,94373.00
2024-04-23T03:41:19.855Z,94370.00
2024-04-23T03:42:20.019Z,94370.00
2024-04-23T03:43:20.122Z,94370.00
2024-04-23T03:44:20.228Z,94367.00
2024-04-23T03:45:20.389Z,94367.00
2024-04-23T03:46:20.551Z,94366.00
2024-04-23T03:47:20.702Z,94367.00
2024-04-23T03:48:20.874Z,94368.00
2024-04-23T03:49:20.925Z,94365.00
2024-04-23T03:50:22.701Z,94368.00
2024-04-23T03:51:21.097Z,94365.00
2024-04-23T03:52:21.108Z,94366.00
2024-04-23T03:53:21.075Z,94365.00
2024-04-23T03:54:21.072Z,94366.00
2024-04-23T03:55:21.074Z,94368.00
2024-04-23T03:56:21.087Z,94367.00
2024-04-23T03:57:24.008Z,94367.00
2024-04-23T03:58:21.097Z,94365.00
2024-04-23T03:59:21.095Z,94370.00
2024-04-23T04:00:21.083Z,94368.00
2024-04-23T04:01:21.068Z,94362.00
2024-04-23T04:02:21.204Z,94368.00
2024-04-23T04:03:21.093Z,94367.00
2024-04-23T04:04:21.095Z,94366.00
2024-04-23T04:05:21.069Z,94365.00
2024-04-23T04:06:21.066Z,94366.00
2024-04-23T04:07:21.109Z,94365.00
2024-04-23T04:08:21.061Z,94364.00
2024-04-23T04:09:21.115Z,94366.00
2024-04-23T04:10:21.136Z,94368.00
2024-04-23T04:11:21.163Z,94367.00
2024-04-23T04:12:21.085Z,94368.00
2024-04-23T04:13:23.971Z,94366.00
2024-04-23T04:14:21.100Z,94362.00
2024-04-23T04:15:21.104Z,94360.00
2024-04-23T04:16:21.065Z,94357.00
2024-04-23T04:17:21.156Z,94357.00
2024-04-23T04:18:21.176Z,94357.00
2024-04-23T04:19:21.078Z,94357.00
2024-04-23T04:20:21.102Z,94354.00
2024-04-23T04:21:21.104Z,94353.00
2024-04-23T04:22:21.133Z,94355.00
2024-04-23T04:23:21.127Z,94358.00
2024-04-23T04:24:21.130Z,94359.00
2024-04-23T04:25:21.082Z,94362.00
2024-04-23T04:26:21.088Z,94364.00
2024-04-23T04:27:21.091Z,94363.00
2024-04-23T04:28:21.087Z,94362.00
2024-04-23T04:29:21.091Z,94362.00
2024-04-23T04:30:29.051Z,94357.00
2024-04-23T04:31:36.992Z,94358.00
2024-04-23T04:32:37.251Z,94357.00
2024-04-23T04:33:37.368Z,94354.00
2024-04-23T04:34:37.520Z,94353.00
2024-04-23T04:35:37.617Z,94349.00
2024-04-23T04:36:37.766Z,94348.00
2024-04-23T04:37:37.946Z,94346.00
2024-04-23T04:38:37.939Z,94345.00
2024-04-23T04:39:38.064Z,94346.00
2024-04-23T04:40:38.247Z,94347.00
2024-04-23T04:41:38.339Z,94351.00
2024-04-23T04:42:38.524Z,94353.00
2024-04-23T04:43:38.732Z,94352.00
2024-04-23T04:44:38.866Z,94359.00
2024-04-23T04:45:38.982Z,94354.00
2024-04-23T04:46:39.280Z,94355.00
2024-04-23T04:47:39.542Z,94354.00
2024-04-23T04:48:39.590Z,94354.00
2024-04-23T04:49:39.788Z,94356.00
2024-04-23T04:50:39.939Z,94353.00
2024-04-23T04:51:39.989Z,94347.00
2024-04-23T04:52:40.283Z,94348.00
2024-04-23T04:53:40.403Z,94351.00
2024-04-23T04:54:40.583Z,94349.00
2024-04-23T04:55:40.797Z,94349.00
2024-04-23T04:56:40.937Z,94350.00
2024-04-23T04:57:41.136Z,94349.00
2024-04-23T04:58:41.294Z,94347.00
2024-04-23T04:59:41.334Z,94347.00
2024-04-23T05:00:43.955Z,94345.00
2024-04-23T05:01:41.619Z,94346.00
2024-04-23T05:02:41.603Z,94345.00
2024-04-23T05:03:41.600Z,94346.00
2024-04-23T05:04:41.621Z,94347.00
2024-04-23T05:05:41.572Z,94348.00
2024-04-23T05:06:41.591Z,94350.00
2024-04-23T05:07:41.606Z,94348.00
2024-04-23T05:08:41.601Z,94351.00
2024-04-23T05:09:41.584Z,94347.00
2024-04-23T05:10:41.625Z,94346.00
2024-04-23T05:11:41.607Z,94343.00
2024-04-23T05:12:41.610Z,94344.00
2024-04-23T05:13:41.619Z,94345.00
2024-04-23T05:14:41.582Z,94344.00
2024-04-23T05:15:41.611Z,94354.00
2024-04-23T05:16:41.562Z,94343.00
2024-04-23T05:17:41.662Z,94339.00
2024-04-23T05:18:41.582Z,94340.00
2024-04-23T05:19:41.627Z,94346.00
2024-04-23T05:20:41.615Z,94344.00
2024-04-23T05:21:41.582Z,94345.00
2024-04-23T05:22:41.627Z,94350.00
2024-04-23T05:23:41.589Z,94349.00
2024-04-23T05:24:41.573Z,94348.00
2024-04-23T05:25:41.604Z,94350.00
2024-04-23T05:26:41.648Z,94346.00
2024-04-23T05:27:41.570Z,94349.00
2024-04-23T05:28:41.590Z,94347.00
2024-04-23T05:29:41.572Z,94346.00
2024-04-23T05:30:41.568Z,94343.00
2024-04-23T05:31:41.589Z,94345.00
2024-04-23T05:32:41.643Z,94343.00
2024-04-23T05:33:41.663Z,94342.00
2024-04-23T05:34:41.581Z,94346.00
2024-04-23T05:35:41.557Z,94343.00
2024-04-23T05:36:41.598Z,94343.00
2024-04-23T05:37:41.620Z,94340.00
2024-04-23T05:38:41.620Z,94339.00
2024-04-23T05:39:41.576Z,94344.00
2024-04-23T05:40:41.616Z,94344.00
2024-04-23T05:41:41.602Z,94346.00
2024-04-23T05:42:41.623Z,94346.00
2024-04-23T05:43:41.998Z,94350.00
2024-04-23T05:44:41.576Z,94355.00
2024-04-23T05:45:41.585Z,94353.00
2024-04-23T05:46:41.818Z,94354.00
2024-04-23T05:47:41.775Z,94354.00
2024-04-23T05:48:41.672Z,94354.00
2024-04-23T05:49:41.614Z,94354.00
2024-04-23T05:50:42.408Z,94352.00
2024-04-23T05:51:41.554Z,94356.00
2024-04-23T05:52:41.624Z,94354.00
2024-04-23T05:53:41.610Z,94348.00
2024-04-23T05:54:41.735Z,94349.00
2024-04-23T05:55:43.957Z,94351.00
2024-04-23T05:56:41.705Z,94348.00
2024-04-23T05:57:41.720Z,94346.00
2024-04-23T05:58:41.886Z,94343.00
2024-04-23T05:59:41.765Z,94343.00
2024-04-23T06:00:41.998Z,94347.00
2024-04-23T06:01:41.754Z,94346.00
2024-04-23T06:02:41.818Z,94345.00
2024-04-23T06:03:41.755Z,94351.00
2024-04-23T06:04:41.874Z,94347.00
2024-04-23T06:05:41.760Z,94345.00
2024-04-23T06:06:41.808Z,94352.00
2024-04-23T06:07:42.892Z,94348.00
2024-04-23T06:08:41.740Z,94353.00
2024-04-23T06:09:41.920Z,94353.00
2024-04-23T06:10:41.861Z,94355.00
2024-04-23T06:11:41.904Z,94357.00
2024-04-23T06:12:41.932Z,94356.00
2024-04-23T06:13:41.785Z,94360.00
2024-04-23T06:14:42.430Z,94359.00
2024-04-23T06:15:41.780Z,94365.00
2024-04-23T06:16:41.950Z,94369.00
2024-04-23T06:17:47.918Z,94367.00
2024-04-23T06:18:43.144Z,94383.00
2024-04-23T06:19:42.010Z,94369.00
2024-04-23T06:20:42.013Z,94371.00
2024-04-23T06:21:42.070Z,94372.00
2024-04-23T06:22:42.758Z,94371.00
2024-04-23T06:23:42.113Z,94373.00
2024-04-23T06:24:42.124Z,94370.00
2024-04-23T06:25:42.146Z,94372.00
2024-04-23T06:26:48.168Z,94370.00
2024-04-23T06:27:43.239Z,94373.00
2024-04-23T06:28:43.482Z,94372.00
2024-04-23T06:29:42.467Z,94369.00
2024-04-23T06:30:42.171Z,94368.00
2024-04-23T06:31:42.248Z,94368.00
2024-04-23T06:32:42.334Z,94366.00
2024-04-23T06:33:42.193Z,94361.00
2024-04-23T06:34:42.238Z,94365.00
2024-04-23T06:35:42.225Z,94362.00
2024-04-23T06:36:42.173Z,94360.00
2024-04-23T06:37:42.441Z,94359.00
2024-04-23T06:38:42.257Z,94360.00
2024-04-23T06:39:42.197Z,94359.00
2024-04-23T06:40:42.214Z,94359.00
2024-04-23T06:41:42.307Z,94356.00
2024-04-23T06:42:47.911Z,94358.00
2024-04-23T06:43:48.498Z,94363.00
2024-04-23T06:44:43.935Z,94362.00
2024-04-23T06:45:43.879Z,94362.00
2024-04-23T06:46:42.305Z,94368.00
2024-04-23T06:47:42.330Z,94364.00
2024-04-23T06:48:42.237Z,94364.00
2024-04-23T06:49:42.299Z,94362.00
2024-04-23T06:50:42.204Z,94362.00
2024-04-23T06:51:42.196Z,94363.00
2024-04-23T06:52:42.996Z,94362.00
2024-04-23T06:53:42.245Z,94364.00
2024-04-23T06:54:42.291Z,94365.00
2024-04-23T06:55:42.334Z,94367.00
2024-04-23T06:56:42.466Z,94366.00
2024-04-23T06:57:42.247Z,94365.00
2024-04-23T06:58:42.363Z,94365.00
2024-04-23T06:59:42.276Z,94364.00
2024-04-23T07:00:42.326Z,94364.00
2024-04-23T07:01:42.539Z,94364.00
2024-04-23T07:02:42.343Z,94365.00
2024-04-23T07:03:42.389Z,94363.00
2024-04-23T07:04:42.413Z,94362.00
2024-04-23T07:05:42.385Z,94359.00
2024-04-23T07:06:42.479Z,94361.00
2024-04-23T07:07:42.441Z,94357.00
2024-04-23T07:08:42.492Z,94356.00
2024-04-23T07:09:42.436Z,94354.00
2024-04-23T07:10:42.995Z,94358.00
2024-04-23T07:11:42.452Z,94357.00
2024-04-23T07:12:42.523Z,94358.00
2024-04-23T07:13:42.586Z,94354.00
2024-04-23T07:14:42.681Z,94351.00
2024-04-23T07:15:42.473Z,94352.00
2024-04-23T07:16:43.009Z,94353.00
2024-04-23T07:17:42.619Z,94353.00
2024-04-23T07:18:53.154Z,94354.00
2024-04-23T07:19:44.014Z,94352.00
2024-04-23T07:20:42.568Z,94352.00
2024-04-23T07:21:42.816Z,94349.00
2024-04-23T07:22:42.610Z,94348.00
2024-04-23T07:23:42.599Z,94346.00
2024-04-23T07:24:43.011Z,94346.00
2024-04-23T07:25:42.656Z,94346.00
2024-04-23T07:26:42.559Z,94346.00
2024-04-23T07:27:42.560Z,94344.00
2024-04-23T07:28:42.579Z,94346.00
2024-04-23T07:29:42.629Z,94346.00
2024-04-23T07:30:42.741Z,94343.00
2024-04-23T07:31:42.896Z,94343.00
2024-04-23T07:32:42.973Z,94344.00
2024-04-23T07:33:43.134Z,94345.00
2024-04-23T07:34:42.924Z,94346.00
2024-04-23T07:35:43.089Z,94352.00
2024-04-23T07:36:46.513Z,94350.00
2024-04-23T07:37:43.055Z,94349.00
2024-04-23T07:38:43.099Z,94354.00
2024-04-23T07:39:43.091Z,94354.00
2024-04-23T07:40:43.066Z,94351.00
2024-04-23T07:41:43.140Z,94351.00
2024-04-23T07:42:44.066Z,94347.00
2024-04-23T07:43:43.151Z,94347.00
2024-04-23T07:44:44.025Z,94347.00
2024-04-23T07:45:44.106Z,94349.00
2024-04-23T07:46:43.059Z,94348.00
2024-04-23T07:47:43.110Z,94348.00
2024-04-23T07:48:43.136Z,94349.00
2024-04-23T07:49:44.996Z,94349.00
2024-04-23T07:50:43.033Z,94348.00
2024-04-23T07:51:43.126Z,94348.00
2024-04-23T07:52:43.070Z,94348.00
2024-04-23T07:53:44.158Z,94347.00
2024-04-23T07:54:43.065Z,94348.00
2024-04-23T07:55:43.079Z,94347.00
2024-04-23T07:56:44.728Z,94346.00
2024-04-23T07:57:43.574Z,94345.00
2024-04-23T07:58:43.202Z,94347.00
2024-04-23T07:59:43.124Z,94347.00
2024-04-23T08:00:45.000Z,94347.00
2024-04-23T08:01:43.171Z,94349.00
2024-04-23T08:02:43.269Z,94348.00
2024-04-23T08:03:43.721Z,94343.00
2024-04-23T08:04:43.200Z,94343.00
2024-04-23T08:05:43.502Z,94343.00
2024-04-23T08:06:43.090Z,94339.00
2024-04-23T08:07:43.652Z,94341.00
2024-04-23T08:08:43.060Z,94340.00
2024-04-23T08:09:43.071Z,94342.00
2024-04-23T08:10:43.092Z,94342.00
2024-04-23T08:11:44.252Z,94342.00
2024-04-23T08:12:43.030Z,94343.00
2024-04-23T08:13:43.099Z,94344.00
2024-04-23T08:14:44.150Z,94341.00
2024-04-23T08:15:43.048Z,94342.00
2024-04-23T08:16:43.282Z,94343.00
2024-04-23T08:17:43.225Z,94344.00
2024-04-23T08:18:43.161Z,94344.00
2024-04-23T08:19:44.627Z,94345.00
2024-04-23T08:20:43.485Z,94344.00
2024-04-23T08:21:43.165Z,94342.00
2024-04-23T08:22:43.124Z,94342.00
2024-04-23T08:23:43.063Z,94337.00
2024-04-23T08:24:43.063Z,94336.00
2024-04-23T08:25:45.665Z,94336.00
2024-04-23T08:26:43.084Z,94337.00
2024-04-23T08:27:43.477Z,94338.00
2024-04-23T08:28:43.099Z,94337.00
2024-04-23T08:29:43.130Z,94339.00
2024-04-23T08:30:43.112Z,94338.00
2024-04-23T08:31:43.074Z,94337.00
2024-04-23T08:32:43.592Z,94336.00
2024-04-23T08:33:43.199Z,94337.00
2024-04-23T08:34:43.110Z,94338.00
2024-04-23T08:35:43.510Z,94336.00
2024-04-23T08:36:43.097Z,94335.00
2024-04-23T08:37:43.188Z,94337.00
2024-04-23T08:38:43.120Z,94338.00
2024-04-23T08:39:43.561Z,94337.00
2024-04-23T08:40:43.404Z,94337.00
2024-04-23T08:41:43.172Z,94338.00
2024-04-23T08:42:43.072Z,94338.00
2024-04-23T08:43:43.145Z,94337.00
2024-04-23T08:44:44.034Z,94337.00
2024-04-23T08:45:43.550Z,94337.00
2024-04-23T08:46:43.171Z,94338.00
2024-04-23T08:47:43.264Z,94336.00
2024-04-23T08:48:44.042Z,94334.00
2024-04-23T08:49:43.202Z,94336.00
2024-04-23T08:50:43.088Z,94336.00
2024-04-23T08:51:43.103Z,94338.00
2024-04-23T08:52:46.026Z,94335.00
2024-04-23T08:53:43.096Z,94338.00
2024-04-23T08:54:43.928Z,94338.00
2024-04-23T08:55:43.160Z,94338.00
2024-04-23T08:56:43.138Z,94342.00
2024-04-23T08:57:43.173Z,94337.00
2024-04-23T08:58:43.803Z,94339.00
2024-04-23T08:59:43.166Z,94338.00
2024-04-23T09:00:51.473Z,94337.00
2024-04-23T09:01:44.259Z,94336.00
2024-04-23T09:02:43.347Z,94337.00
2024-04-23T09:03:43.162Z,94337.00
2024-04-23T09:04:43.479Z,94338.00
2024-04-23T09:05:43.136Z,94337.00
2024-04-23T09:06:43.128Z,94333.00
2024-04-23T09:07:43.194Z,94334.00
2024-04-23T09:08:44.550Z,94334.00
2024-04-23T09:09:44.030Z,94331.00
2024-04-23T09:10:43.216Z,94329.00
2024-04-23T09:11:45.376Z,94329.00
2024-04-23T09:12:43.189Z,94326.00
2024-04-23T09:13:43.210Z,94325.00
2024-04-23T09:14:43.622Z,94321.00
2024-04-23T09:15:43.161Z,94321.00
2024-04-23T09:16:43.327Z,94319.00
2024-04-23T09:17:43.308Z,94324.00
2024-04-23T09:18:44.013Z,94321.00
2024-04-23T09:19:43.228Z,94323.00
2024-04-23T09:20:43.545Z,94320.00
2024-04-23T09:21:45.089Z,94316.00
2024-04-23T09:22:44.870Z,94314.00
2024-04-23T09:23:43.174Z,94313.00
2024-04-23T09:24:43.339Z,94314.00
2024-04-23T09:25:43.173Z,94314.00
2024-04-23T09:26:43.186Z,94313.00
2024-04-23T09:27:44.571Z,94312.00
2024-04-23T09:28:43.318Z,94314.00
2024-04-23T09:29:43.260Z,94313.00
2024-04-23T09:30:43.932Z,94318.00
2024-04-23T09:31:43.414Z,94313.00
2024-04-23T09:32:43.634Z,94311.00
2024-04-23T09:33:43.641Z,94309.00
2024-04-23T09:34:43.607Z,94308.00
2024-04-23T09:35:43.588Z,94310.00
2024-04-23T09:36:43.697Z,94309.00
2024-04-23T09:37:43.816Z,94309.00
2024-04-23T09:38:43.932Z,94312.00
2024-04-23T09:39:46.573Z,94310.00
2024-04-23T09:40:43.978Z,94310.00
2024-04-23T09:41:44.120Z,94311.00
2024-04-23T09:42:44.597Z,94308.00
2024-04-23T09:43:43.874Z,94307.00
2024-04-23T09:44:43.906Z,94307.00
2024-04-23T09:45:43.877Z,94305.00
2024-04-23T09:46:44.068Z,94304.00
2024-04-23T09:47:44.013Z,94304.00
2024-04-23T09:48:44.178Z,94301.00
2024-04-23T09:49:43.919Z,94303.00
2024-04-23T09:50:43.897Z,94303.00
2024-04-23T09:51:44.014Z,94302.00
2024-04-23T09:52:43.917Z,94302.00
2024-04-23T09:53:43.869Z,94303.00
2024-04-23T09:54:43.884Z,94302.00
2024-04-23T09:55:43.920Z,94301.00
2024-04-23T09:56:44.045Z,94298.00
2024-04-23T09:57:43.900Z,94301.00
2024-04-23T09:58:43.917Z,94298.00
2024-04-23T09:59:43.930Z,94295.00
2024-04-23T10:00:43.937Z,94290.00
2024-04-23T10:01:43.953Z,94288.00
2024-04-23T10:02:44.042Z,94285.00
2024-04-23T10:03:43.981Z,94285.00
2024-04-23T10:04:43.992Z,94284.00
2024-04-23T10:05:43.969Z,94285.00
2024-04-23T10:06:44.072Z,94280.00
2024-04-23T10:07:43.931Z,94280.00
2024-04-23T10:08:43.919Z,94283.00
2024-04-23T10:09:43.929Z,94277.00
2024-04-23T10:10:44.150Z,94279.00
2024-04-23T10:11:44.149Z,94277.00
2024-04-23T10:12:44.682Z,94273.00
2024-04-23T10:13:44.204Z,94272.00
2024-04-23T10:14:44.222Z,94273.00
2024-04-23T10:15:44.276Z,94270.00
2024-04-23T10:16:44.419Z,94270.00
2024-04-23T10:17:44.658Z,94268.00
2024-04-23T10:18:46.114Z,94267.00
2024-04-23T10:19:44.663Z,94268.00
2024-04-23T10:20:44.632Z,94267.00
2024-04-23T10:21:44.704Z,94266.00
2024-04-23T10:22:44.829Z,94265.00
2024-04-23T10:23:44.814Z,94262.00
2024-04-23T10:24:44.864Z,94262.00
2024-04-23T10:25:44.936Z,94264.00
2024-04-23T10:26:44.961Z,94262.00
2024-04-23T10:27:45.028Z,94261.00
2024-04-23T10:28:45.102Z,94260.00
2024-04-23T10:29:45.153Z,94257.00
2024-04-23T10:30:45.194Z,94254.00
2024-04-23T10:31:45.354Z,94255.00
2024-04-23T10:32:45.502Z,94260.00
2024-04-23T10:33:45.567Z,94261.00
2024-04-23T10:34:45.461Z,94258.00
2024-04-23T10:35:45.487Z,94259.00
2024-04-23T10:36:45.496Z,94259.00
2024-04-23T10:37:45.488Z,94259.00
2024-04-23T10:38:45.470Z,94259.00
2024-04-23T10:39:45.527Z,94256.00
2024-04-23T10:40:52.128Z,94257.00
2024-04-23T10:41:46.578Z,94257.00
2024-04-23T10:42:45.545Z,94257.00
2024-04-23T10:43:45.592Z,94256.00
2024-04-23T10:44:45.559Z,94254.00
2024-04-23T10:45:45.620Z,94255.00
2024-04-23T10:46:45.604Z,94254.00
2024-04-23T10:47:45.592Z,94252.00
2024-04-23T10:48:45.682Z,94252.00
2024-04-23T10:49:45.662Z,94255.00
2024-04-23T10:50:45.541Z,94250.00
2024-04-23T10:51:45.571Z,94255.00
2024-04-23T10:52:45.567Z,94257.00
2024-04-23T10:53:45.565Z,94255.00
2024-04-23T10:54:45.577Z,94256.00
2024-04-23T10:55:45.589Z,94251.00
2024-04-23T10:56:45.573Z,94253.00
2024-04-23T10:57:45.600Z,94251.00
2024-04-23T10:58:45.674Z,94252.00
2024-04-23T10:59:45.773Z,94253.00
2024-04-23T11:00:45.913Z,94251.00
2024-04-23T11:01:45.897Z,94252.00
2024-04-23T11:02:45.971Z,94250.00
2024-04-23T11:03:46.115Z,94250.00
2024-04-23T11:04:46.179Z,94252.00
2024-04-23T11:05:46.062Z,94251.00
2024-04-23T11:06:46.131Z,94251.00
2024-04-23T11:07:46.198Z,94247.00
2024-04-23T11:08:46.240Z,94250.00
2024-04-23T11:09:46.309Z,94250.00
2024-04-23T11:10:46.493Z,94250.00
2024-04-23T11:11:46.461Z,94250.00
2024-04-23T11:12:46.416Z,94249.00
2024-04-23T11:13:46.479Z,94249.00
2024-04-23T11:14:46.554Z,94249.00
2024-04-23T11:15:46.544Z,94249.00
2024-04-23T11:16:46.648Z,94247.00
2024-04-23T11:17:46.650Z,94250.00
2024-04-23T11:18:47.654Z,94248.00
2024-04-23T11:19:46.687Z,94251.00
2024-04-23T11:20:46.731Z,94248.00
2024-04-23T11:21:46.780Z,94244.00
2024-04-23T11:22:46.911Z,94243.00
2024-04-23T11:23:46.818Z,94239.00
2024-04-23T11:24:46.863Z,94238.00
2024-04-23T11:25:46.994Z,94237.00
2024-04-23T11:26:46.906Z,94236.00
2024-04-23T11:27:46.988Z,94239.00
2024-04-23T11:28:47.043Z,94239.00
2024-04-23T11:29:47.083Z,94241.00
2024-04-23T11:30:47.115Z,94237.00
2024-04-23T11:31:47.141Z,94236.00
2024-04-23T11:32:47.308Z,94237.00
2024-04-23T11:33:47.347Z,94238.00
2024-04-23T11:34:47.336Z,94233.00
2024-04-23T11:35:47.286Z,94235.00
2024-04-23T11:36:47.352Z,94234.00
2024-04-23T11:37:47.434Z,94236.00
2024-04-23T11:38:47.509Z,94236.00
2024-04-23T11:39:47.477Z,94234.00
2024-04-23T11:40:47.557Z,94235.00
2024-04-23T11:41:47.556Z,94231.00
2024-04-23T11:42:47.641Z,94233.00
2024-04-23T11:43:47.624Z,94229.00
2024-04-23T11:44:47.654Z,94233.00